Station Historical Data
Daily Summary for August 23, 2017 Units:  English    Metric   Both
« Previous Day
Next Day »
Daily Weekly Monthly Yearly Custom
  High: Low: Average:
Temperature: 88.0 °F 72.4 °F 78.7 °F
Dew Point: 72.2 °F 64.4 °F 69.2 °F
Humidity: 89% 54% 74%
Wind Speed: 1.0mph 0.0mph 0.1mph
Wind Gust: 6.0mph - -
Wind- - WSW
Pressure: 30.00 in 29.86 in -
Precipitation: 0.00 in    
Historical Graphs
 
 
Tabular Data for August 23, 2017
Time Temperature Dew Point Pressure Wind Wind Speed Wind Gust Humidity Rainfall Rate (Hourly) solar Conditions
00:00 77.0 °F 71.4 °F 30.00 in Calm     83% 0.00 in WeatherDisplay:10.37 W/m2 CLR
00:05 77.0 °F 71.4 °F 30.00 in Calm     83% 0.00 in WeatherDisplay:10.37 W/m2 CLR
00:10 76.8 °F 71.2 °F 29.99 in Calm     83% 0.00 in WeatherDisplay:10.37 W/m2 CLR
00:15 76.7 °F 71.5 °F 29.99 in Calm   1.0 mph 84% 0.00 in WeatherDisplay:10.37 W/m2 CLR
00:20 76.6 °F 71.4 °F 29.99 in Calm     84% 0.00 in WeatherDisplay:10.37 W/m2 CLR
00:25 76.5 °F 71.3 °F 29.99 in Calm     84% 0.00 in WeatherDisplay:10.37 W/m2 CLR
00:30 76.4 °F 71.2 °F 29.99 in Calm     84% 0.00 in WeatherDisplay:10.37 W/m2 CLR
00:40 76.4 °F 71.2 °F 29.99 in Calm     84% 0.00 in WeatherDisplay:10.37 W/m2 CLR
00:45 76.4 °F 71.2 °F 29.99 in Calm     84% 0.00 in WeatherDisplay:10.37 W/m2 CLR
00:50 76.4 °F 71.2 °F 29.98 in Calm     84% 0.00 in WeatherDisplay:10.37 W/m2 CLR
00:55 76.4 °F 71.2 °F 29.98 in Calm     84% 0.00 in WeatherDisplay:10.37 W/m2 CLR
01:00 76.3 °F 71.1 °F 29.98 in Calm     84% 0.00 in WeatherDisplay:10.37 W/m2 CLR
01:05 76.3 °F 71.1 °F 29.98 in Calm     84% 0.00 in WeatherDisplay:10.37 W/m2 CLR
01:10 76.2 °F 71.0 °F 29.99 in Calm     84% 0.00 in WeatherDisplay:10.37 W/m2 CLR
01:15 76.2 °F 71.0 °F 29.98 in Calm     84% 0.00 in WeatherDisplay:10.37 W/m2 CLR
01:20 76.1 °F 70.6 °F 29.98 in Calm   1.0 mph 83% 0.00 in WeatherDisplay:10.37 W/m2 CLR
01:25 76.1 °F 70.6 °F 29.98 in Calm     83% 0.00 in WeatherDisplay:10.37 W/m2 CLR
01:30 76.1 °F 70.2 °F 29.98 in Calm     82% 0.00 in WeatherDisplay:10.37 W/m2 CLR
01:35 76.1 °F 70.2 °F 29.97 in Calm   1.0 mph 82% 0.00 in WeatherDisplay:10.37 W/m2 CLR
01:40 76.1 °F 70.2 °F 29.97 in Calm     82% 0.00 in WeatherDisplay:10.37 W/m2 CLR
01:45 76.0 °F 70.1 °F 29.96 in Calm     82% 0.00 in WeatherDisplay:10.37 W/m2 CLR
01:50 75.9 °F 70.0 °F 29.97 in Calm     82% 0.00 in WeatherDisplay:10.37 W/m2 CLR
01:55 75.9 °F 70.0 °F 29.96 in Calm   1.0 mph 82% 0.00 in WeatherDisplay:10.37 W/m2 CLR
02:00 75.7 °F 69.8 °F 29.96 in Calm   1.0 mph 82% 0.00 in WeatherDisplay:10.37 W/m2 CLR
02:05 75.7 °F 69.8 °F 29.96 in Calm     82% 0.00 in WeatherDisplay:10.37 W/m2 CLR
02:10 75.6 °F 69.7 °F 29.96 in Calm     82% 0.00 in WeatherDisplay:10.37 W/m2 CLR
02:15 75.5 °F 69.6 °F 29.96 in Calm     82% 0.00 in WeatherDisplay:10.37 W/m2 CLR
02:20 75.4 °F 69.9 °F 29.96 in Calm     83% 0.00 in WeatherDisplay:10.37 W/m2 CLR
02:25 75.3 °F 69.8 °F 29.95 in Calm     83% 0.00 in WeatherDisplay:10.37 W/m2 CLR
02:30 75.2 °F 69.7 °F 29.95 in Calm     83% 0.00 in WeatherDisplay:10.37 W/m2 CLR
02:35 75.1 °F 69.6 °F 29.95 in Calm     83% 0.00 in WeatherDisplay:10.37 W/m2 CLR
02:40 75.0 °F 69.5 °F 29.95 in Calm     83% 0.00 in WeatherDisplay:10.37 W/m2 CLR
02:45 74.9 °F 69.7 °F 29.95 in Calm     84% 0.00 in WeatherDisplay:10.37 W/m2 CLR
02:50 74.8 °F 69.6 °F 29.95 in Calm     84% 0.00 in WeatherDisplay:10.37 W/m2 CLR
02:55 74.7 °F 69.5 °F 29.96 in Calm     84% 0.00 in WeatherDisplay:10.37 W/m2 CLR
03:00 74.6 °F 69.8 °F 29.95 in Calm     85% 0.00 in WeatherDisplay:10.37 W/m2 CLR
03:10 74.4 °F 69.6 °F 29.96 in Calm     85% 0.00 in WeatherDisplay:10.37 W/m2 CLR
03:15 74.3 °F 69.8 °F 29.96 in Calm     86% 0.00 in WeatherDisplay:10.37 W/m2 CLR
03:20 74.2 °F 69.8 °F 29.96 in Calm     86% 0.00 in WeatherDisplay:10.37 W/m2 FEW
03:25 74.2 °F 69.7 °F 29.96 in Calm     86% 0.00 in WeatherDisplay:10.37 W/m2 FEW
03:30 74.2 °F 69.7 °F 29.95 in Calm     86% 0.00 in WeatherDisplay:10.37 W/m2 FEW
03:45 74.1 °F 69.6 °F 29.95 in Calm     86% 0.00 in WeatherDisplay:10.37 W/m2 FEW
03:50 74.0 °F 69.6 °F 29.95 in Calm     86% 0.00 in WeatherDisplay:10.37 W/m2 FEW
03:55 74.0 °F 69.5 °F 29.95 in Calm     86% 0.00 in WeatherDisplay:10.37 W/m2 FEW
04:00 74.0 °F 69.5 °F 29.94 in Calm     86% 0.00 in WeatherDisplay:10.37 W/m2 FEW
04:10 73.9 °F 69.4 °F 29.94 in Calm     86% 0.00 in WeatherDisplay:10.37 W/m2 FEW
04:15 73.8 °F 69.3 °F 29.95 in Calm     86% 0.00 in WeatherDisplay:10.37 W/m2 FEW
04:20 73.7 °F 69.3 °F 29.95 in Calm     86% 0.00 in WeatherDisplay:10.37 W/m2 FEW
04:25 73.7 °F 69.2 °F 29.95 in Calm     86% 0.00 in WeatherDisplay:10.37 W/m2 FEW
04:30 73.7 °F 69.2 °F 29.95 in Calm     86% 0.00 in WeatherDisplay:10.37 W/m2 FEW
04:35 73.7 °F 69.2 °F 29.95 in Calm     86% 0.00 in WeatherDisplay:10.37 W/m2 FEW
04:40 73.7 °F 69.2 °F 29.95 in Calm     86% 0.00 in WeatherDisplay:10.37 W/m2 FEW
04:45 73.6 °F 69.2 °F 29.95 in Calm     86% 0.00 in WeatherDisplay:10.37 W/m2 FEW
04:50 73.6 °F 69.2 °F 29.94 in Calm     86% 0.00 in WeatherDisplay:10.37 W/m2 FEW
04:55 73.6 °F 69.1 °F 29.95 in Calm     86% 0.00 in WeatherDisplay:10.37 W/m2 FEW
05:00 73.5 °F 69.4 °F 29.94 in Calm     87% 0.00 in WeatherDisplay:10.37 W/m2 FEW
05:05 73.4 °F 69.3 °F 29.94 in Calm     87% 0.00 in WeatherDisplay:10.37 W/m2 FEW
05:10 73.3 °F 69.2 °F 29.94 in Calm     87% 0.00 in WeatherDisplay:10.37 W/m2 FEW
05:15 73.2 °F 69.1 °F 29.94 in Calm     87% 0.00 in WeatherDisplay:10.37 W/m2 FEW
05:20 73.2 °F 69.1 °F 29.94 in Calm     87% 0.00 in WeatherDisplay:10.37 W/m2 CLR
05:25 73.1 °F 69.0 °F 29.94 in Calm     87% 0.00 in WeatherDisplay:10.37 W/m2 CLR
05:30 73.1 °F 69.0 °F 29.94 in Calm     87% 0.00 in WeatherDisplay:10.37 W/m2 CLR
05:35 72.9 °F 68.8 °F 29.94 in Calm     87% 0.00 in WeatherDisplay:10.37 W/m2 CLR
05:40 72.9 °F 69.1 °F 29.94 in Calm     88% 0.00 in WeatherDisplay:10.37 W/m2 CLR
05:45 72.8 °F 69.0 °F 29.94 in Calm     88% 0.00 in WeatherDisplay:10.37 W/m2 CLR
05:50 72.7 °F 68.9 °F 29.94 in Calm     88% 0.00 in WeatherDisplay:10.37 W/m2 CLR
05:55 72.6 °F 68.8 °F 29.94 in Calm     88% 0.00 in WeatherDisplay:10.37 W/m2 CLR
06:00 72.6 °F 68.8 °F 29.94 in Calm     88% 0.00 in WeatherDisplay:10.37 W/m2 CLR
06:05 72.5 °F 68.7 °F 29.94 in Calm     88% 0.00 in WeatherDisplay:10.37 W/m2 CLR
06:10 72.5 °F 69.0 °F 29.95 in Calm     89% 0.00 in WeatherDisplay:10.37 W/m2 CLR
06:15 72.4 °F 69.0 °F 29.95 in Calm     89% 0.00 in WeatherDisplay:10.37 W/m2 CLR
06:20 72.4 °F 69.0 °F 29.94 in Calm     89% 0.00 in WeatherDisplay:10.37 W/m2 CLR
06:25 72.4 °F 69.0 °F 29.95 in Calm   1.0 mph 89% 0.00 in WeatherDisplay:10.37 W/m2 CLR
06:30 72.6 °F 69.2 °F 29.95 in Calm   1.0 mph 89% 0.00 in WeatherDisplay:10.37 W/m2 CLR
06:40 73.1 °F 69.7 °F 29.95 in Calm     89% 0.00 in WeatherDisplay:10.37 W/m2 CLR
06:45 73.3 °F 69.5 °F 29.95 in Calm   1.0 mph 88% 0.00 in WeatherDisplay:10.37 W/m2 CLR
06:55 73.5 °F 69.7 °F 29.94 in Calm     88% 0.00 in WeatherDisplay:10.37 W/m2 CLR
07:00 73.5 °F 69.7 °F 29.94 in Calm     88% 0.00 in WeatherDisplay:10.37 W/m2 CLR
07:10 73.3 °F 69.5 °F 29.95 in Calm     88% 0.00 in WeatherDisplay:10.37 W/m2 CLR
07:15 73.2 °F 69.4 °F 29.95 in Calm     88% 0.00 in WeatherDisplay:10.37 W/m2 CLR
07:20 73.1 °F 69.3 °F 29.95 in Calm     88% 0.00 in WeatherDisplay:10.37 W/m2 SCT
07:25 73.1 °F 69.7 °F 29.95 in Calm     89% 0.00 in WeatherDisplay:10.37 W/m2 SCT
07:30 73.0 °F 69.6 °F 29.96 in Calm     89% 0.00 in WeatherDisplay:10.37 W/m2 SCT
07:35 73.0 °F 69.6 °F 29.95 in Calm     89% 0.00 in WeatherDisplay:10.37 W/m2 SCT
07:40 73.0 °F 69.6 °F 29.95 in Calm   1.0 mph 89% 0.00 in WeatherDisplay:10.37 W/m2 SCT
07:45 73.2 °F 69.7 °F 29.95 in Calm   1.0 mph 89% 0.00 in WeatherDisplay:10.37 W/m2 SCT
07:50 73.3 °F 69.9 °F 29.95 in Calm     89% 0.00 in WeatherDisplay:10.37 W/m2 SCT
08:00 73.6 °F 70.2 °F 29.95 in Calm   1.0 mph 89% 0.00 in WeatherDisplay:10.37 W/m2 SCT
08:05 73.8 °F 70.3 °F 29.95 in Calm   1.0 mph 89% 0.00 in WeatherDisplay:10.37 W/m2 SCT
08:10 74.0 °F 70.6 °F 29.95 in Calm     89% 0.00 in WeatherDisplay:10.37 W/m2 SCT
08:15 74.3 °F 70.6 °F 29.95 in Calm   1.0 mph 88% 0.00 in WeatherDisplay:10.37 W/m2 SCT
08:20 74.6 °F 70.5 °F 29.95 in Calm   1.0 mph 87% 0.00 in WeatherDisplay:10.37 W/m2 SCT
08:25 74.7 °F 70.6 °F 29.95 in Calm     87% 0.00 in WeatherDisplay:10.37 W/m2 SCT
08:30 74.9 °F 70.8 °F 29.95 in Calm   1.0 mph 87% 0.00 in WeatherDisplay:10.37 W/m2 SCT
08:35 75.2 °F 70.7 °F 29.95 in West 1.0 mph 3.0 mph 86% 0.00 in WeatherDisplay:10.37 W/m2 SCT
08:40 75.3 °F 70.8 °F 29.95 in Calm   3.0 mph 86% 0.00 in WeatherDisplay:10.37 W/m2 SCT
08:45 75.5 °F 71.0 °F 29.95 in Calm   1.0 mph 86% 0.00 in WeatherDisplay:10.37 W/m2 SCT
08:50 75.7 °F 70.9 °F 29.95 in Calm     85% 0.00 in WeatherDisplay:10.37 W/m2 SCT
08:55 75.8 °F 71.0 °F 29.95 in Calm   1.0 mph 85% 0.00 in WeatherDisplay:10.37 W/m2 SCT
09:00 76.0 °F 71.2 °F 29.95 in Calm   1.0 mph 85% 0.00 in WeatherDisplay:10.37 W/m2 SCT
09:10 76.5 °F 71.3 °F 29.95 in Calm   2.0 mph 84% 0.00 in WeatherDisplay:10.37 W/m2 SCT
09:15 76.7 °F 71.2 °F 29.95 in Calm   2.0 mph 83% 0.00 in WeatherDisplay:10.37 W/m2 SCT
09:20 77.0 °F 71.4 °F 29.95 in Calm   2.0 mph 83% 0.00 in WeatherDisplay:10.37 W/m2 SCT
09:25 77.3 °F 71.4 °F 29.95 in WSW 1.0 mph 2.0 mph 82% 0.00 in WeatherDisplay:10.37 W/m2 SCT
09:30 77.4 °F 71.5 °F 29.95 in Calm   2.0 mph 82% 0.00 in WeatherDisplay:10.37 W/m2 SCT
09:35 77.6 °F 71.3 °F 29.95 in Calm   1.0 mph 81% 0.00 in WeatherDisplay:10.37 W/m2 SCT
09:40 77.7 °F 71.4 °F 29.95 in Calm     81% 0.00 in WeatherDisplay:10.37 W/m2 SCT
09:45 77.9 °F 71.2 °F 29.95 in Calm   1.0 mph 80% 0.00 in WeatherDisplay:10.37 W/m2 SCT
09:50 78.4 °F 71.7 °F 29.95 in Calm   1.0 mph 80% 0.00 in WeatherDisplay:10.37 W/m2 SCT
09:55 78.8 °F 71.7 °F 29.95 in Calm   6.0 mph 79% 0.00 in WeatherDisplay:10.37 W/m2 SCT
10:00 79.0 °F 71.6 °F 29.95 in Calm   2.0 mph 78% 0.00 in WeatherDisplay:10.37 W/m2 SCT
10:05 79.0 °F 71.6 °F 29.95 in Calm   3.0 mph 78% 0.00 in WeatherDisplay:10.37 W/m2 SCT
10:15 79.4 °F 71.6 °F 29.96 in WSW 1.0 mph 2.0 mph 77% 0.00 in WeatherDisplay:10.37 W/m2 SCT
10:20 79.2 °F 71.4 °F 29.96 in Calm   1.0 mph 77% 0.00 in WeatherDisplay:10.37 W/m2 BKN
10:25 79.2 °F 71.4 °F 29.96 in Calm   2.0 mph 77% 0.00 in WeatherDisplay:10.37 W/m2 BKN
10:30 79.2 °F 71.4 °F 29.96 in Calm   3.0 mph 77% 0.00 in WeatherDisplay:10.37 W/m2 BKN
10:35 79.4 °F 71.6 °F 29.96 in Calm   3.0 mph 77% 0.00 in WeatherDisplay:10.37 W/m2 BKN
10:40 79.7 °F 72.2 °F 29.96 in Calm   2.0 mph 78% 0.00 in WeatherDisplay:10.37 W/m2 BKN
10:45 80.1 °F 71.9 °F 29.96 in Calm   3.0 mph 76% 0.00 in WeatherDisplay:10.37 W/m2 BKN
10:50 80.2 °F 71.6 °F 29.97 in Calm   2.0 mph 75% 0.00 in WeatherDisplay:10.37 W/m2 BKN
10:55 80.1 °F 71.5 °F 29.97 in Calm   1.0 mph 75% 0.00 in WeatherDisplay:10.37 W/m2 BKN
11:00 80.2 °F 71.6 °F 29.97 in Calm   1.0 mph 75% 0.00 in WeatherDisplay:10.37 W/m2 BKN
11:05 80.3 °F 71.6 °F 29.97 in Calm   1.0 mph 75% 0.00 in WeatherDisplay:10.37 W/m2 BKN
11:10 80.3 °F 71.3 °F 29.97 in Calm   2.0 mph 74% 0.00 in WeatherDisplay:10.37 W/m2 BKN
11:15 80.5 °F 71.9 °F 29.96 in Calm   1.0 mph 75% 0.00 in WeatherDisplay:10.37 W/m2 BKN
11:20 80.8 °F 71.3 °F 29.96 in Calm   2.0 mph 73% 0.00 in WeatherDisplay:10.37 W/m2 BKN
11:25 80.9 °F 71.8 °F 29.97 in Calm   2.0 mph 74% 0.00 in WeatherDisplay:10.37 W/m2 BKN
11:30 80.9 °F 71.4 °F 29.96 in Calm   2.0 mph 73% 0.00 in WeatherDisplay:10.37 W/m2 BKN
11:35 81.3 °F 71.4 °F 29.96 in WSW 1.0 mph 3.0 mph 72% 0.00 in WeatherDisplay:10.37 W/m2 BKN
11:40 81.4 °F 71.5 °F 29.96 in Calm   3.0 mph 72% 0.00 in WeatherDisplay:10.37 W/m2 BKN
11:45 81.7 °F 71.0 °F 29.96 in West 1.0 mph 5.0 mph 70% 0.00 in WeatherDisplay:10.37 W/m2 BKN
11:50 81.9 °F 71.1 °F 29.96 in Calm   2.0 mph 70% 0.00 in WeatherDisplay:10.37 W/m2 BKN
11:55 82.6 °F 71.4 °F 29.96 in Calm   2.0 mph 69% 0.00 in WeatherDisplay:10.37 W/m2 BKN
12:00 82.9 °F 71.7 °F 29.96 in Calm   2.0 mph 69% 0.00 in WeatherDisplay:10.37 W/m2 BKN
12:05 82.9 °F 71.7 °F 29.96 in Calm   1.0 mph 69% 0.00 in WeatherDisplay:10.37 W/m2 BKN
12:10 82.8 °F 71.6 °F 29.96 in NNW 1.0 mph 3.0 mph 69% 0.00 in WeatherDisplay:10.37 W/m2 BKN
12:15 83.2 °F 72.0 °F 29.96 in Calm   1.0 mph 69% 0.00 in WeatherDisplay:10.37 W/m2 BKN
12:20 84.0 °F 71.4 °F 29.95 in Calm   5.0 mph 66% 0.00 in WeatherDisplay:10.37 W/m2 BKN
12:25 84.0 °F 71.0 °F 29.96 in Calm   3.0 mph 65% 0.00 in WeatherDisplay:10.37 W/m2 BKN
12:30 84.3 °F 71.7 °F 29.95 in Calm   1.0 mph 66% 0.00 in WeatherDisplay:10.37 W/m2 BKN
12:40 85.0 °F 71.5 °F 29.95 in Calm   3.0 mph 64% 0.00 in WeatherDisplay:10.37 W/m2 BKN
12:45 84.7 °F 70.2 °F 29.95 in South 1.0 mph 5.0 mph 62% 0.00 in WeatherDisplay:10.37 W/m2 BKN
12:50 84.6 °F 71.5 °F 29.95 in SSW 1.0 mph 5.0 mph 65% 0.00 in WeatherDisplay:10.37 W/m2 SCT
12:55 84.5 °F 70.5 °F 29.95 in Calm   5.0 mph 63% 0.00 in WeatherDisplay:10.37 W/m2 SCT
13:00 84.8 °F 71.3 °F 29.95 in Calm   2.0 mph 64% 0.00 in WeatherDisplay:10.37 W/m2 SCT
13:05 85.6 °F 71.1 °F 29.94 in Calm   2.0 mph 62% 0.00 in WeatherDisplay:10.37 W/m2 SCT
13:10 86.0 °F 71.4 °F 29.95 in Calm   3.0 mph 62% 0.00 in WeatherDisplay:10.37 W/m2 SCT
13:15 86.8 °F 71.2 °F 29.95 in SSW 1.0 mph 3.0 mph 60% 0.00 in WeatherDisplay:10.37 W/m2 SCT
13:20 87.1 °F 71.0 °F 29.95 in Calm   3.0 mph 59% 0.00 in WeatherDisplay:10.37 W/m2 BKN
13:25 88.0 °F 71.4 °F 29.94 in Calm   3.0 mph 58% 0.00 in WeatherDisplay:10.37 W/m2 BKN
13:30 88.0 °F 70.4 °F 29.94 in WNW 1.0 mph 5.0 mph 56% 0.00 in WeatherDisplay:10.37 W/m2 BKN
13:35 87.7 °F 70.1 °F 29.94 in West 1.0 mph 3.0 mph 56% 0.00 in WeatherDisplay:10.37 W/m2 BKN
13:40 87.6 °F 71.0 °F 29.94 in Calm   2.0 mph 58% 0.00 in WeatherDisplay:10.37 W/m2 BKN
13:45 87.6 °F 70.0 °F 29.94 in Calm   3.0 mph 56% 0.00 in WeatherDisplay:10.37 W/m2 BKN
13:50 87.3 °F 70.2 °F 29.93 in Calm   1.0 mph 57% 0.00 in WeatherDisplay:10.37 W/m2 BKN
13:55 87.0 °F 70.5 °F 29.93 in Calm   2.0 mph 58% 0.00 in WeatherDisplay:10.37 W/m2 BKN
14:00 87.0 °F 69.9 °F 29.93 in NW 1.0 mph 3.0 mph 57% 0.00 in WeatherDisplay:10.37 W/m2 BKN
14:05 87.4 °F 70.8 °F 29.93 in WNW 1.0 mph 2.0 mph 58% 0.00 in WeatherDisplay:10.37 W/m2 BKN
14:10 87.7 °F 71.1 °F 29.93 in Calm   6.0 mph 58% 0.00 in WeatherDisplay:10.37 W/m2 BKN
14:15 88.0 °F 69.8 °F 29.93 in Calm   5.0 mph 55% 0.00 in WeatherDisplay:10.37 W/m2 BKN
14:20 87.8 °F 69.1 °F 29.93 in SSW 1.0 mph 5.0 mph 54% 0.00 in WeatherDisplay:10.37 W/m2 BKN
14:25 87.4 °F 69.7 °F 29.93 in Calm   2.0 mph 56% 0.00 in WeatherDisplay:10.37 W/m2 BKN
14:30 87.3 °F 69.7 °F 29.92 in Calm     56% 0.00 in WeatherDisplay:10.37 W/m2 BKN
14:40 87.5 °F 69.4 °F 29.92 in Calm   1.0 mph 55% 0.00 in WeatherDisplay:10.37 W/m2 BKN
14:45 87.0 °F 68.9 °F 29.92 in ESE 1.0 mph 3.0 mph 55% 0.00 in WeatherDisplay:10.37 W/m2 BKN
14:50 86.1 °F 70.1 °F 29.92 in Calm   1.0 mph 59% 0.00 in WeatherDisplay:10.37 W/m2 BKN
14:55 85.9 °F 69.4 °F 29.92 in Calm   2.0 mph 58% 0.00 in WeatherDisplay:10.37 W/m2 BKN
15:00 85.8 °F 69.8 °F 29.92 in Calm   1.0 mph 59% 0.00 in WeatherDisplay:10.37 W/m2 BKN
15:05 86.0 °F 70.0 °F 29.91 in West 1.0 mph 5.0 mph 59% 0.00 in WeatherDisplay:10.37 W/m2 BKN
15:10 86.1 °F 69.6 °F 29.91 in Calm   3.0 mph 58% 0.00 in WeatherDisplay:10.37 W/m2 BKN
15:15 86.3 °F 68.8 °F 29.91 in Calm   2.0 mph 56% 0.00 in WeatherDisplay:10.37 W/m2 BKN
15:20 86.2 °F 69.2 °F 29.91 in Calm   1.0 mph 57% 0.00 in WeatherDisplay:10.37 W/m2 BKN
15:25 85.7 °F 68.7 °F 29.91 in Calm   2.0 mph 57% 0.00 in WeatherDisplay:10.37 W/m2 BKN
15:30 85.3 °F 68.3 °F 29.91 in Calm   1.0 mph 57% 0.00 in WeatherDisplay:10.37 W/m2 BKN
15:40 85.3 °F 69.3 °F 29.90 in Calm   1.0 mph 59% 0.00 in WeatherDisplay:10.37 W/m2 BKN
15:45 85.3 °F 69.3 °F 29.90 in Calm   1.0 mph 59% 0.00 in WeatherDisplay:10.37 W/m2 BKN
15:50 85.6 °F 69.2 °F 29.90 in Calm   3.0 mph 58% 0.00 in WeatherDisplay:10.37 W/m2 BKN
15:55 85.8 °F 68.8 °F 29.90 in Calm   1.0 mph 57% 0.00 in WeatherDisplay:10.37 W/m2 BKN
16:00 85.8 °F 68.8 °F 29.89 in Calm   2.0 mph 57% 0.00 in WeatherDisplay:10.37 W/m2 BKN
16:05 85.9 °F 68.9 °F 29.89 in Calm   2.0 mph 57% 0.00 in WeatherDisplay:10.37 W/m2 BKN
16:10 85.9 °F 68.9 °F 29.89 in Calm   1.0 mph 57% 0.00 in WeatherDisplay:10.37 W/m2 BKN
16:15 85.7 °F 67.7 °F 29.89 in Calm   3.0 mph 55% 0.00 in WeatherDisplay:10.37 W/m2 BKN
16:20 85.7 °F 68.2 °F 29.88 in Calm   3.0 mph 56% 0.00 in WeatherDisplay:10.37 W/m2 BKN
16:30 85.8 °F 68.8 °F 29.88 in Calm   1.0 mph 57% 0.00 in WeatherDisplay:10.37 W/m2 BKN
16:40 85.7 °F 67.7 °F 29.88 in Calm   1.0 mph 55% 0.00 in WeatherDisplay:10.37 W/m2 BKN
16:45 85.6 °F 68.1 °F 29.88 in Calm   2.0 mph 56% 0.00 in WeatherDisplay:10.37 W/m2 BKN
16:50 85.5 °F 67.5 °F 29.87 in Calm   2.0 mph 55% 0.00 in WeatherDisplay:10.37 W/m2 BKN
16:55 85.5 °F 68.5 °F 29.87 in Calm   1.0 mph 57% 0.00 in WeatherDisplay:10.37 W/m2 BKN
17:00 85.3 °F 67.8 °F 29.87 in Calm   1.0 mph 56% 0.00 in WeatherDisplay:10.37 W/m2 BKN
17:05 85.1 °F 67.6 °F 29.87 in Calm   2.0 mph 56% 0.00 in WeatherDisplay:10.37 W/m2 BKN
17:10 84.9 °F 68.5 °F 29.87 in Calm     58% 0.00 in WeatherDisplay:10.37 W/m2 BKN
17:15 84.7 °F 67.7 °F 29.87 in Calm   1.0 mph 57% 0.00 in WeatherDisplay:10.37 W/m2 BKN
17:20 84.8 °F 67.9 °F 29.87 in Calm   1.0 mph 57% 0.00 in WeatherDisplay:10.37 W/m2 SCT
17:25 85.3 °F 68.4 °F 29.87 in Calm   1.0 mph 57% 0.00 in WeatherDisplay:10.37 W/m2 SCT
17:30 85.9 °F 68.4 °F 29.87 in Calm   1.0 mph 56% 0.00 in WeatherDisplay:10.37 W/m2 SCT
17:40 86.0 °F 67.9 °F 29.87 in Calm   1.0 mph 55% 0.00 in WeatherDisplay:10.37 W/m2 SCT
17:45 85.6 °F 68.6 °F 29.87 in Calm   1.0 mph 57% 0.00 in WeatherDisplay:10.37 W/m2 SCT
17:50 85.2 °F 68.7 °F 29.87 in Calm   1.0 mph 58% 0.00 in WeatherDisplay:10.37 W/m2 SCT
17:55 84.7 °F 67.8 °F 29.87 in Calm   2.0 mph 57% 0.00 in WeatherDisplay:10.37 W/m2 SCT
18:00 84.4 °F 68.0 °F 29.87 in Calm   1.0 mph 58% 0.00 in WeatherDisplay:10.37 W/m2 SCT
18:10 83.6 °F 67.3 °F 29.87 in Calm   1.0 mph 58% 0.00 in WeatherDisplay:10.37 W/m2 SCT
18:15 83.4 °F 67.6 °F 29.87 in Calm   1.0 mph 59% 0.00 in WeatherDisplay:10.37 W/m2 SCT
18:20 83.0 °F 67.2 °F 29.86 in Calm     59% 0.00 in WeatherDisplay:10.37 W/m2 FEW
18:25 82.8 °F 67.5 °F 29.87 in Calm     60% 0.00 in WeatherDisplay:10.37 W/m2 FEW
18:30 82.6 °F 67.8 °F 29.87 in Calm     61% 0.00 in WeatherDisplay:10.37 W/m2 FEW
18:40 82.2 °F 68.3 °F 29.87 in Calm     63% 0.00 in WeatherDisplay:10.37 W/m2 FEW
18:45 82.0 °F 67.7 °F 29.86 in Calm     62% 0.00 in WeatherDisplay:10.37 W/m2 FEW
18:50 81.9 °F 67.6 °F 29.86 in Calm     62% 0.00 in WeatherDisplay:10.37 W/m2 FEW
18:55 81.7 °F 66.9 °F 29.86 in Calm     61% 0.00 in WeatherDisplay:10.37 W/m2 FEW
19:00 81.7 °F 67.9 °F 29.87 in Calm     63% 0.00 in WeatherDisplay:10.37 W/m2 FEW
19:10 81.4 °F 67.6 °F 29.87 in Calm   1.0 mph 63% 0.00 in WeatherDisplay:10.37 W/m2 FEW
19:15 81.2 °F 67.9 °F 29.87 in Calm     64% 0.00 in WeatherDisplay:10.37 W/m2 FEW
19:20 81.2 °F 67.9 °F 29.87 in Calm     64% 0.00 in WeatherDisplay:10.37 W/m2 FEW
19:25 81.0 °F 68.6 °F 29.87 in Calm     66% 0.00 in WeatherDisplay:10.37 W/m2 FEW
19:30 80.8 °F 67.9 °F 29.87 in Calm     65% 0.00 in WeatherDisplay:10.37 W/m2 FEW
19:35 80.7 °F 67.0 °F 29.87 in Calm   1.0 mph 63% 0.00 in WeatherDisplay:10.37 W/m2 FEW
19:40 80.9 °F 67.1 °F 29.86 in Calm     63% 0.00 in WeatherDisplay:10.37 W/m2 FEW
19:45 80.8 °F 67.5 °F 29.86 in Calm     64% 0.00 in WeatherDisplay:10.37 W/m2 FEW
19:50 80.7 °F 67.4 °F 29.86 in Calm     64% 0.00 in WeatherDisplay:10.37 W/m2 FEW
19:55 80.4 °F 67.1 °F 29.87 in Calm     64% 0.00 in WeatherDisplay:10.37 W/m2 FEW
20:00 80.1 °F 67.3 °F 29.87 in Calm     65% 0.00 in WeatherDisplay:10.37 W/m2 FEW
20:05 79.9 °F 67.5 °F 29.87 in Calm     66% 0.00 in WeatherDisplay:10.37 W/m2 FEW
20:10 79.7 °F 67.3 °F 29.87 in Calm   1.0 mph 66% 0.00 in WeatherDisplay:10.37 W/m2 FEW
20:15 79.5 °F 67.1 °F 29.87 in Calm     66% 0.00 in WeatherDisplay:10.37 W/m2 FEW
20:20 79.2 °F 66.9 °F 29.87 in Calm     66% 0.00 in WeatherDisplay:10.37 W/m2 FEW
20:25 78.9 °F 67.4 °F 29.87 in Calm     68% 0.00 in WeatherDisplay:10.37 W/m2 FEW
20:30 78.6 °F 66.8 °F 29.87 in Calm     67% 0.00 in WeatherDisplay:10.37 W/m2 FEW
20:35 78.4 °F 66.5 °F 29.87 in Calm     67% 0.00 in WeatherDisplay:10.37 W/m2 FEW
20:40 78.1 °F 66.7 °F 29.87 in Calm     68% 0.00 in WeatherDisplay:10.37 W/m2 FEW
20:45 77.9 °F 66.5 °F 29.87 in Calm     68% 0.00 in WeatherDisplay:10.37 W/m2 FEW
20:50 77.7 °F 66.3 °F 29.87 in Calm     68% 0.00 in WeatherDisplay:10.37 W/m2 FEW
20:55 77.5 °F 66.1 °F 29.88 in Calm     68% 0.00 in WeatherDisplay:10.37 W/m2 FEW
21:00 77.3 °F 66.3 °F 29.88 in Calm     69% 0.00 in WeatherDisplay:10.37 W/m2 FEW
21:05 77.1 °F 66.6 °F 29.88 in Calm     70% 0.00 in WeatherDisplay:10.37 W/m2 FEW
21:10 76.9 °F 66.4 °F 29.88 in Calm     70% 0.00 in WeatherDisplay:10.37 W/m2 FEW
21:15 76.7 °F 66.2 °F 29.88 in Calm     70% 0.00 in WeatherDisplay:10.37 W/m2 FEW
21:20 76.6 °F 66.5 °F 29.88 in Calm     71% 0.00 in WeatherDisplay:10.37 W/m2 FEW
21:25 76.4 °F 66.3 °F 29.88 in Calm     71% 0.00 in WeatherDisplay:10.37 W/m2 FEW
21:30 76.2 °F 66.5 °F 29.89 in Calm     72% 0.00 in WeatherDisplay:10.37 W/m2 FEW
21:35 75.9 °F 66.6 °F 29.89 in Calm     73% 0.00 in WeatherDisplay:10.37 W/m2 FEW
21:40 75.7 °F 66.8 °F 29.89 in Calm     74% 0.00 in WeatherDisplay:10.37 W/m2 FEW
21:45 75.5 °F 67.0 °F 29.89 in Calm     75% 0.00 in WeatherDisplay:10.37 W/m2 FEW
21:50 75.3 °F 66.8 °F 29.90 in Calm     75% 0.00 in WeatherDisplay:10.37 W/m2 FEW
21:55 75.1 °F 66.6 °F 29.90 in Calm     75% 0.00 in WeatherDisplay:10.37 W/m2 FEW
22:00 74.9 °F 66.5 °F 29.90 in Calm     75% 0.00 in WeatherDisplay:10.37 W/m2 FEW
22:05 74.7 °F 66.2 °F 29.90 in Calm     75% 0.00 in WeatherDisplay:10.37 W/m2 FEW
22:10 74.5 °F 66.4 °F 29.90 in Calm     76% 0.00 in WeatherDisplay:10.37 W/m2 FEW
22:15 74.4 °F 66.7 °F 29.90 in Calm     77% 0.00 in WeatherDisplay:10.37 W/m2 FEW
22:20 74.2 °F 66.9 °F 29.90 in Calm     78% 0.00 in WeatherDisplay:10.37 W/m2 CLR
22:25 74.0 °F 66.7 °F 29.90 in Calm     78% 0.00 in WeatherDisplay:10.37 W/m2 CLR
22:30 74.0 °F 66.3 °F 29.90 in Calm     77% 0.00 in WeatherDisplay:10.37 W/m2 CLR
22:35 73.9 °F 66.2 °F 29.91 in Calm     77% 0.00 in WeatherDisplay:10.37 W/m2 CLR
22:40 73.9 °F 66.2 °F 29.91 in Calm   1.0 mph 77% 0.00 in WeatherDisplay:10.37 W/m2 CLR
22:45 73.8 °F 66.1 °F 29.91 in Calm     77% 0.00 in WeatherDisplay:10.37 W/m2 CLR
22:50 73.6 °F 65.6 °F 29.90 in Calm     76% 0.00 in WeatherDisplay:10.37 W/m2 CLR
22:55 73.6 °F 65.6 °F 29.91 in Calm     76% 0.00 in WeatherDisplay:10.37 W/m2 CLR
23:00 73.6 °F 65.9 °F 29.91 in Calm     77% 0.00 in WeatherDisplay:10.37 W/m2 CLR
23:05 73.5 °F 65.5 °F 29.91 in Calm     76% 0.00 in WeatherDisplay:10.37 W/m2 CLR
23:10 73.3 °F 65.3 °F 29.91 in Calm     76% 0.00 in WeatherDisplay:10.37 W/m2 CLR
23:15 73.2 °F 65.2 °F 29.91 in Calm     76% 0.00 in WeatherDisplay:10.37 W/m2 CLR
23:20 73.0 °F 65.4 °F 29.91 in Calm     77% 0.00 in WeatherDisplay:10.37 W/m2 CLR
23:25 72.9 °F 64.9 °F 29.91 in Calm     76% 0.00 in WeatherDisplay:10.37 W/m2 CLR
23:35 72.7 °F 65.1 °F 29.90 in Calm     77% 0.00 in WeatherDisplay:10.37 W/m2 CLR
23:40 72.6 °F 64.6 °F 29.91 in Calm   1.0 mph 76% 0.00 in WeatherDisplay:10.37 W/m2 CLR
23:45 72.5 °F 64.5 °F 29.91 in Calm     76% 0.00 in WeatherDisplay:10.37 W/m2 CLR
23:50 72.4 °F 64.4 °F 29.91 in Calm     76% 0.00 in WeatherDisplay:10.37 W/m2 CLR
23:55 72.4 °F 64.4 °F 29.91 in Calm   1.0 mph 76% 0.00 in WeatherDisplay:10.37 W/m2 CLR
Piedmont Bend
Compliments of Weather Underground - 4 mb